Time;durP1;ratioP1;P1;durP2;ratioP2;P2;SDS_P1;SDS_P2;PMS_P1;PMS_P2;Temp;Humidity;BMP_temperature;BMP_pressure;BME280_temperature;BME280_humidity;BME280_pressure;Samples;Min_cycle;Max_cycle;Signal;HPM_P1;HPM_P2
2022/01/04 00:00:48;;;;;;;10.82;4.47;;;;;;;-2.38;100.00;98465.38;4981681;28;20012;-65
2022/01/04 00:03:33;;;;;;;8.68;4.30;;;;;;;-2.42;100.00;98466.19;4953286;28;20057;-65
2022/01/04 00:06:17;;;;;;;11.52;4.50;;;;;;;-2.44;100.00;98471.38;4984305;28;20065;-66
2022/01/04 00:09:04;;;;;;;12.82;4.35;;;;;;;-2.49;100.00;98469.56;4970150;28;20053;-69
2022/01/04 00:14:40;;;;;;;7.57;4.32;;;;;;;-2.35;100.00;98466.25;4953842;28;20061;-65
2022/01/04 00:17:25;;;;;;;8.75;4.95;;;;;;;-2.24;100.00;98467.22;4985062;28;20552;-66
2022/01/04 00:20:11;;;;;;;11.45;4.90;;;;;;;-2.16;100.00;98469.88;4969200;28;20128;-65
2022/01/04 00:22:56;;;;;;;9.50;4.32;;;;;;;-2.14;100.00;98469.03;4967231;28;20053;-66
2022/01/04 00:25:41;;;;;;;;;;;;;;;-2.00;100.00;98476.94;4977309;28;20049;-63
2022/01/04 00:28:27;;;;;;;10.25;4.63;;;;;;;-2.22;100.00;98470.69;4976361;28;19936;-66
2022/01/04 00:31:12;;;;;;;6.40;3.88;;;;;;;-2.27;100.00;98480.16;4985439;28;20142;-65
2022/01/04 00:33:56;;;;;;;13.35;4.78;;;;;;;-2.24;100.00;98475.03;4976180;28;20747;-63
2022/01/04 00:36:40;;;;;;;9.73;4.78;;;;;;;-2.28;100.00;98481.03;4964084;28;20097;-64
2022/01/04 00:39:25;;;;;;;10.85;3.95;;;;;;;-2.26;100.00;98481.06;4980393;28;20049;-66
2022/01/04 00:42:09;;;;;;;10.20;4.70;;;;;;;-2.17;100.00;98481.13;4983801;28;20053;-64
2022/01/04 00:44:54;;;;;;;;;;;;;;;-2.04;100.00;98486.44;4972347;28;20135;-65
2022/01/04 00:50:38;;;;;;;6.10;3.60;;;;;;;-2.15;100.00;98485.47;4957360;28;20395;-63
2022/01/04 00:53:23;;;;;;;9.25;4.00;;;;;;;-2.18;100.00;98477.66;4954094;28;20056;-64
2022/01/04 00:56:08;;;;;;;6.97;4.03;;;;;;;-2.19;100.00;98494.09;4982254;28;20049;-66
2022/01/04 00:58:53;;;;;;;8.55;4.00;;;;;;;-2.14;100.00;98488.94;4973975;28;20105;-65
2022/01/04 01:01:39;;;;;;;10.63;4.53;;;;;;;-2.08;100.00;98491.59;4953670;28;20584;-65
2022/01/04 01:04:25;;;;;;;7.78;3.95;;;;;;;-2.01;100.00;98486.44;4980112;28;20057;-67
2022/01/04 01:07:09;;;;;;;6.65;3.80;;;;;;;-1.99;100.00;98487.34;4975629;28;20297;-65
2022/01/04 01:10:11;;;;;;;7.13;4.00;;;;;;;-1.97;100.00;98496.00;4973769;28;20077;-70
2022/01/04 01:12:56;;;;;;;10.05;3.88;;;;;;;-1.93;100.00;98494.31;4968839;28;20057;-69
2022/01/04 01:15:45;;;;;;;9.85;3.95;;;;;;;-1.94;100.00;98493.44;4976681;28;20053;-65
2022/01/04 01:18:30;;;;;;;8.05;3.65;;;;;;;-1.97;100.00;98492.56;4969673;28;20422;-65
2022/01/04 01:21:15;;;;;;;7.70;4.80;;;;;;;-2.03;100.00;98485.59;4953566;28;20105;-66
2022/01/04 01:24:00;;;;;;;8.57;4.45;;;;;;;-2.10;100.00;98508.91;4950981;28;20057;-66
2022/01/04 01:26:45;;;;;;;7.45;3.80;;;;;;;-2.21;100.00;98502.72;4948561;28;20070;-66
2022/01/04 01:29:31;;;;;;;8.10;3.95;;;;;;;-2.09;100.00;98501.09;4967758;28;20104;-65
2022/01/04 01:32:17;;;;;;;8.95;4.03;;;;;;;-2.12;100.00;98506.28;4983755;28;20068;-67
2022/01/04 01:35:02;;;;;;;8.50;4.43;;;;;;;-2.23;100.00;98507.00;4972673;28;20489;-64
2022/01/04 01:37:48;;;;;;;8.80;3.85;;;;;;;-2.28;100.00;98504.41;4966763;28;20057;-65
2022/01/04 01:40:34;;;;;;;7.80;4.30;;;;;;;-2.11;100.00;98499.34;4952326;28;20423;-66
2022/01/04 01:43:20;;;;;;;7.45;3.60;;;;;;;-2.03;100.00;98508.06;4952309;28;20062;-68
2022/01/04 01:46:05;;;;;;;8.32;3.67;;;;;;;-2.13;100.00;98491.53;4982776;28;20057;-64
2022/01/04 01:48:49;;;;;;;7.88;3.90;;;;;;;-2.11;100.00;98507.13;4987701;28;20053;-64
2022/01/04 01:51:35;;;;;;;6.32;3.90;;;;;;;-2.00;100.00;98510.69;4971519;28;20112;-64
2022/01/04 01:54:20;;;;;;;9.25;4.13;;;;;;;-1.98;100.00;98509.00;4971323;28;20057;-65
2022/01/04 01:57:05;;;;;;;9.50;4.10;;;;;;;-1.89;100.00;98504.75;4970456;28;20204;-66
2022/01/04 01:59:50;;;;;;;9.32;4.32;;;;;;;-1.86;100.00;98512.56;4988885;28;20057;-64
2022/01/04 02:02:36;;;;;;;9.32;4.07;;;;;;;-1.77;100.00;98517.84;4979053;28;20476;-69
2022/01/04 02:05:22;;;;;;;6.82;4.18;;;;;;;-1.72;100.00;98510.94;4980720;28;20141;-64
2022/01/04 02:08:08;;;;;;;7.05;4.03;;;;;;;-1.70;100.00;98498.81;4991836;28;20255;-66
2022/01/04 02:10:53;;;;;;;7.60;4.18;;;;;;;-1.84;100.00;98497.88;4966317;28;20510;-63
2022/01/04 02:13:39;;;;;;;7.45;4.35;;;;;;;-1.81;100.00;98510.00;4960332;28;20100;-70
2022/01/04 02:16:30;;;;;;;7.47;4.10;;;;;;;-1.85;100.00;98500.44;4991081;28;20061;-64
2022/01/04 02:19:16;;;;;;;8.98;4.35;;;;;;;-1.88;100.00;98503.00;4974729;28;20068;-63
2022/01/04 02:22:01;;;;;;;8.07;4.25;;;;;;;-2.14;100.00;98512.31;4974813;28;20056;-62
2022/01/04 02:24:46;;;;;;;8.52;4.20;;;;;;;-2.30;100.00;98503.50;4956774;28;20049;-62
2022/01/04 02:27:35;;;;;;;8.88;3.92;;;;;;;-2.10;100.00;98514.94;4987079;28;20057;-64
2022/01/04 02:30:21;;;;;;;11.27;4.50;;;;;;;-2.03;100.00;98518.44;4969648;28;20061;-64
2022/01/04 02:33:05;;;;;;;8.32;4.45;;;;;;;-2.15;100.00;98523.53;4986596;28;20089;-63
2022/01/04 02:35:50;;;;;;;8.20;4.35;;;;;;;-2.26;100.00;98530.38;4974013;28;20665;-63
2022/01/04 02:38:36;;;;;;;11.52;4.45;;;;;;;-2.22;100.00;98529.53;4971187;28;20049;-66
2022/01/04 02:41:21;;;;;;;8.23;4.40;;;;;;;-2.28;100.00;98519.09;4971666;28;20092;-62
2022/01/04 02:44:06;;;;;;;6.55;3.88;;;;;;;-2.37;100.00;98512.06;4985254;28;20097;-66
2022/01/04 02:46:50;;;;;;;9.00;4.68;;;;;;;-2.22;100.00;98529.53;4984778;28;21455;-62
2022/01/04 02:49:35;;;;;;;7.95;4.38;;;;;;;-2.18;100.00;98536.50;4986308;28;20053;-67
2022/01/04 02:52:20;;;;;;;9.13;4.50;;;;;;;-2.11;100.00;98533.97;4973812;28;20057;-62
2022/01/04 02:55:06;;;;;;;8.80;4.50;;;;;;;-2.00;100.00;98536.66;4984999;28;20053;-62
2022/01/04 02:57:51;;;;;;;9.00;4.63;;;;;;;-2.01;100.00;98540.13;4984650;28;20151;-64
2022/01/04 03:00:36;;;;;;;11.38;4.55;;;;;;;-1.98;100.00;98535.81;4987355;28;20109;-64
2022/01/04 03:03:20;;;;;;;8.35;4.45;;;;;;;-2.12;100.00;98549.53;4971528;28;20049;-64
2022/01/04 03:06:05;;;;;;;8.85;4.53;;;;;;;-2.20;100.00;98548.59;4970489;28;20140;-63
2022/01/04 03:08:49;;;;;;;11.90;5.20;;;;;;;-2.22;100.00;98548.56;4989066;28;20108;-64
2022/01/04 03:11:34;;;;;;;9.45;5.30;;;;;;;-2.32;100.00;98551.03;4987389;28;20133;-65
2022/01/04 03:14:19;;;;;;;9.73;4.65;;;;;;;-2.31;100.00;98555.38;4976358;28;20610;-62
2022/01/04 03:17:04;;;;;;;7.00;4.35;;;;;;;-2.25;100.00;98556.31;4975810;28;20049;-63
2022/01/04 03:19:49;;;;;;;11.38;5.47;;;;;;;-2.20;100.00;98562.44;4972057;28;20058;-62
2022/01/04 03:22:33;;;;;;;10.60;5.40;;;;;;;-2.16;100.00;98558.16;4969027;28;20917;-64
2022/01/04 03:25:18;;;;;;;11.23;5.30;;;;;;;-2.13;100.00;98563.38;4972599;28;20130;-63
2022/01/04 03:28:04;;;;;;;11.00;5.72;;;;;;;-2.15;100.00;98563.34;4988699;28;20062;-62
2022/01/04 03:30:48;;;;;;;14.38;5.10;;;;;;;-2.23;100.00;98546.84;4969664;28;20130;-63
2022/01/04 03:33:34;;;;;;;10.52;5.15;;;;;;;-2.18;100.00;98573.69;4973819;28;20057;-63
2022/01/04 03:36:24;;;;;;;9.88;5.13;;;;;;;-2.13;100.00;98572.00;4984605;28;20084;-65
2022/01/04 03:39:11;;;;;;;11.75;5.22;;;;;;;-2.09;100.00;98586.75;4969404;28;20093;-63
2022/01/04 03:41:55;;;;;;;9.73;5.05;;;;;;;-2.02;100.00;98579.94;4973979;28;20101;-68
2022/01/04 03:44:40;;;;;;;10.57;5.05;;;;;;;-2.04;100.00;98579.91;4978984;28;20068;-62
2022/01/04 03:47:24;;;;;;;11.10;5.03;;;;;;;-2.03;100.00;98578.16;4979551;28;20569;-63
2022/01/04 03:50:09;;;;;;;10.20;4.65;;;;;;;-2.02;100.00;98579.94;4985539;28;20057;-63
2022/01/04 03:52:54;;;;;;;11.50;5.10;;;;;;;-2.03;100.00;98584.25;4970376;28;20077;-63
2022/01/04 03:55:38;;;;;;;9.25;4.95;;;;;;;-2.16;100.00;98584.97;4978090;28;20120;-64
2022/01/04 03:58:23;;;;;;;12.32;4.95;;;;;;;-2.18;100.00;98586.69;4966670;28;20487;-66
2022/01/04 04:01:08;;;;;;;13.05;4.68;;;;;;;-2.17;100.00;98585.81;4963459;28;20049;-64
2022/01/04 04:03:53;;;;;;;9.40;4.80;;;;;;;-2.18;100.00;98591.88;4973937;28;20116;-68
2022/01/04 04:06:38;;;;;;;13.13;5.10;;;;;;;-2.25;100.00;98597.00;4985766;28;20057;-64
2022/01/04 04:09:22;;;;;;;9.90;5.22;;;;;;;-2.21;100.00;98593.56;4954244;28;20061;-63
2022/01/04 04:12:07;;;;;;;11.20;5.60;;;;;;;-2.22;100.00;98582.31;4970200;28;20050;-64
2022/01/04 04:14:52;;;;;;;9.23;5.18;;;;;;;-2.09;100.00;98598.91;4985752;28;20108;-65
2022/01/04 04:17:36;;;;;;;11.65;4.82;;;;;;;-2.01;100.00;98605.03;4983381;28;20053;-64
2022/01/04 04:20:22;;;;;;;10.30;5.60;;;;;;;-2.08;100.00;98603.22;4966983;28;20549;-64
2022/01/04 04:23:07;;;;;;;7.53;4.90;;;;;;;-2.09;100.00;98602.34;4971037;28;20427;-70
2022/01/04 04:25:52;;;;;;;11.77;5.88;;;;;;;-2.18;100.00;98609.19;4968517;28;20053;-63
2022/01/04 04:28:36;;;;;;;9.82;5.30;;;;;;;-2.16;100.00;98597.97;4954530;28;20142;-64
2022/01/04 04:31:22;;;;;;;13.52;5.82;;;;;;;-2.07;100.00;98602.34;4983063;28;20105;-63
2022/01/04 04:34:06;;;;;;;11.27;5.15;;;;;;;-2.21;100.00;98591.81;4984272;28;20052;-68
2022/01/04 04:36:51;;;;;;;11.20;5.72;;;;;;;-2.17;100.00;98603.97;4987753;28;20180;-63
2022/01/04 04:39:35;;;;;;;12.23;5.20;;;;;;;-2.16;100.00;98599.69;4964111;28;20057;-64
2022/01/04 04:42:20;;;;;;;13.90;6.07;;;;;;;-2.11;100.00;98603.19;4986385;28;20112;-68
2022/01/04 04:45:06;;;;;;;12.97;5.33;;;;;;;-2.09;100.00;98606.69;4982809;28;20085;-65
2022/01/04 04:47:50;;;;;;;11.07;5.40;;;;;;;-2.15;100.00;98602.28;4976138;28;21049;-65
2022/01/04 04:50:35;;;;;;;11.48;5.60;;;;;;;-2.09;100.00;98604.94;4983933;28;20045;-64
2022/01/04 04:53:19;;;;;;;11.75;5.32;;;;;;;-2.25;100.00;98587.47;4975723;28;20096;-64
2022/01/04 04:56:04;;;;;;;12.15;5.68;;;;;;;-2.22;100.00;98608.25;4973443;28;20198;-62
2022/01/04 04:58:48;;;;;;;10.68;5.35;;;;;;;-2.21;100.00;98611.75;4977512;28;20422;-62
2022/01/04 05:01:32;;;;;;;14.20;6.43;;;;;;;-2.26;100.00;98622.06;4985373;28;20509;-64
2022/01/04 05:04:18;;;;;;;13.35;5.72;;;;;;;-2.20;100.00;98618.66;4971189;28;20052;-62
2022/01/04 05:07:03;;;;;;;13.15;5.57;;;;;;;-2.23;100.00;98623.81;4962302;28;20065;-66
2022/01/04 05:09:48;;;;;;;12.57;6.22;;;;;;;-2.25;100.00;98615.16;4965845;28;20530;-65
2022/01/04 05:12:32;;;;;;;13.77;5.70;;;;;;;-2.35;100.00;98603.78;4979966;28;20130;-62
2022/01/04 05:15:17;;;;;;;16.83;6.65;;;;;;;-2.44;100.00;98605.41;4979617;28;20068;-71
2022/01/04 05:18:02;;;;;;;12.30;5.82;;;;;;;-2.55;100.00;98615.66;4972826;28;20053;-64
2022/01/04 05:20:46;;;;;;;14.07;6.32;;;;;;;-2.61;100.00;98628.53;4943281;28;20115;-72
2022/01/04 05:23:31;;;;;;;14.52;6.63;;;;;;;-2.56;100.00;98634.66;4988127;28;20045;-62
2022/01/04 05:26:16;;;;;;;11.90;5.88;;;;;;;-2.52;100.00;98622.59;4969065;28;20085;-63
2022/01/04 05:29:02;;;;;;;12.32;6.10;;;;;;;-2.47;100.00;98641.69;4959130;28;20113;-63
2022/01/04 05:31:47;;;;;;;11.90;5.60;;;;;;;-2.48;100.00;98620.06;4993488;28;20201;-64
2022/01/04 05:34:32;;;;;;;12.73;6.07;;;;;;;-2.32;100.00;98641.88;4988957;28;20156;-63
2022/01/04 05:37:16;;;;;;;14.55;5.90;;;;;;;-2.43;100.00;98641.75;4984525;28;20186;-63
2022/01/04 05:40:02;;;;;;;11.45;6.03;;;;;;;-2.51;100.00;98645.97;4983180;28;20061;-63
2022/01/04 05:42:47;;;;;;;12.50;6.13;;;;;;;-2.47;100.00;98639.97;4970685;28;20054;-63
2022/01/04 05:45:32;;;;;;;12.05;6.18;;;;;;;-2.56;100.00;98632.09;4972704;28;20054;-71
2022/01/04 05:48:20;;;;;;;11.95;5.72;;;;;;;-2.55;100.00;98644.19;4989570;28;20085;-63
2022/01/04 05:51:04;;;;;;;13.02;6.50;;;;;;;-2.71;100.00;98642.25;4972853;28;20430;-69
2022/01/04 05:53:49;;;;;;;13.10;6.53;;;;;;;-2.79;100.00;98643.84;4988294;28;20077;-63
2022/01/04 05:56:34;;;;;;;12.57;6.55;;;;;;;-2.71;100.00;98650.03;4979667;28;20053;-63
2022/01/04 05:59:19;;;;;;;13.18;5.65;;;;;;;-2.62;100.00;98634.56;4982336;28;20097;-65
2022/01/04 06:02:04;;;;;;;16.65;7.10;;;;;;;-2.72;100.00;98653.47;4981297;28;20073;-66
2022/01/04 06:04:48;;;;;;;14.15;5.63;;;;;;;-2.62;100.00;98651.84;4971142;28;20053;-66
2022/01/04 06:07:33;;;;;;;12.13;5.47;;;;;;;-2.70;100.00;98654.34;4959189;28;20050;-64
2022/01/04 06:10:17;;;;;;;10.30;5.23;;;;;;;-2.66;100.00;98653.53;4974607;28;20077;-64
2022/01/04 06:15:46;;;;;;;11.60;5.43;;;;;;;-2.76;100.00;98651.69;4983505;28;20434;-63
2022/01/04 06:18:30;;;;;;;10.48;5.50;;;;;;;-2.72;100.00;98653.47;4943034;28;20050;-64
2022/01/04 06:21:15;;;;;;;9.35;5.00;;;;;;;-2.58;100.00;98671.78;4986699;28;20132;-67
2022/01/04 06:23:59;;;;;;;10.32;5.18;;;;;;;-2.97;100.00;98641.00;4988788;28;20100;-65
2022/01/04 06:26:44;;;;;;;11.13;5.50;;;;;;;-2.85;100.00;98671.44;4987618;28;20071;-71
2022/01/04 06:29:29;;;;;;;9.93;5.13;;;;;;;-2.76;100.00;98675.03;4977936;28;20061;-65
2022/01/04 06:32:15;;;;;;;9.68;5.03;;;;;;;-2.75;100.00;98681.06;4975782;28;20105;-70
2022/01/04 06:34:59;;;;;;;10.45;5.10;;;;;;;-2.64;100.00;98674.31;4946000;28;20104;-67
2022/01/04 06:37:46;;;;;;;10.75;5.55;;;;;;;-2.98;100.00;98680.72;4950429;28;20077;-62
2022/01/04 06:40:30;;;;;;;9.95;4.72;;;;;;;-3.16;100.00;98677.00;4969743;28;20552;-66
2022/01/04 06:43:15;;;;;;;9.38;4.63;;;;;;;-2.95;100.00;98688.56;4977052;28;20140;-64
2022/01/04 06:45:59;;;;;;;11.27;5.78;;;;;;;-2.73;100.00;98688.03;4974317;28;20050;-67
2022/01/04 06:48:44;;;;;;;9.45;4.50;;;;;;;-2.84;100.00;98692.19;4968398;28;20263;-62
2022/01/04 06:51:29;;;;;;;9.27;4.65;;;;;;;-2.80;100.00;98696.59;4976374;28;20052;-63
2022/01/04 06:54:15;;;;;;;12.13;5.05;;;;;;;-2.84;100.00;98706.88;4970043;28;20430;-68
2022/01/04 06:57:00;;;;;;;13.02;5.65;;;;;;;-2.78;100.00;98704.34;4985720;28;20092;-69
2022/01/04 06:59:45;;;;;;;12.70;5.88;;;;;;;-2.72;100.00;98712.25;4958809;28;20065;-68
2022/01/04 07:02:29;;;;;;;10.95;5.20;;;;;;;-2.66;100.00;98713.19;4969299;28;20053;-68
2022/01/04 07:05:14;;;;;;;9.38;4.85;;;;;;;-2.74;100.00;98725.19;4988246;28;20163;-69
2022/01/04 07:07:59;;;;;;;9.30;5.32;;;;;;;-2.70;100.00;98726.09;4970943;28;20092;-69
2022/01/04 07:10:43;;;;;;;11.10;5.60;;;;;;;-2.74;100.00;98714.81;4983599;28;20510;-68
2022/01/04 07:13:27;;;;;;;10.27;5.00;;;;;;;-2.79;100.00;98729.44;4954088;28;20421;-67
2022/01/04 07:16:13;;;;;;;10.23;5.10;;;;;;;-2.73;100.00;98739.03;4971679;28;20084;-69
2022/01/04 07:18:57;;;;;;;11.57;5.07;;;;;;;-2.68;100.00;98737.38;4975502;28;20058;-68
2022/01/04 07:21:42;;;;;;;9.90;4.97;;;;;;;-2.55;100.00;98736.69;4977807;28;20109;-68
2022/01/04 07:24:27;;;;;;;10.25;4.97;;;;;;;-2.84;100.00;98741.47;4974086;28;20049;-66
2022/01/04 07:27:12;;;;;;;10.48;5.82;;;;;;;-3.18;100.00;98731.38;4962772;28;20045;-66
2022/01/04 07:29:56;;;;;;;12.60;5.88;;;;;;;-2.86;100.00;98742.25;4972020;28;20065;-64
2022/01/04 07:32:41;;;;;;;11.82;5.45;;;;;;;-2.67;100.00;98740.00;4972378;28;20622;-67
2022/01/04 07:35:26;;;;;;;13.18;6.88;;;;;;;-2.49;100.00;98742.00;4971570;28;20053;-68
2022/01/04 07:38:12;;;;;;;10.00;5.22;;;;;;;-3.07;100.00;98748.00;4974673;28;20050;-67
2022/01/04 07:40:56;;;;;;;13.73;6.35;;;;;;;-3.11;100.00;98743.59;4972765;28;20541;-70
2022/01/04 07:43:41;;;;;;;13.15;6.22;;;;;;;-3.01;100.00;98748.06;4985916;28;20579;-70
2022/01/04 07:46:26;;;;;;;14.75;6.57;;;;;;;-2.73;100.00;98744.22;4953649;28;20120;-67
2022/01/04 07:49:10;;;;;;;16.75;7.93;;;;;;;-2.73;100.00;98747.66;4960559;28;20186;-66
2022/01/04 07:51:55;;;;;;;18.58;7.82;;;;;;;-2.60;100.00;98747.03;4969420;28;20101;-71
2022/01/04 07:54:41;;;;;;;17.25;7.55;;;;;;;-2.68;100.00;98739.97;4954502;28;20062;-69
2022/01/04 07:57:26;;;;;;;20.23;7.65;;;;;;;-2.58;100.00;98736.66;4979198;28;20064;-74
2022/01/04 08:00:15;;;;;;;19.90;8.50;;;;;;;-2.32;100.00;98746.56;4993784;28;20044;-71
2022/01/04 08:03:10;;;;;;;19.27;8.40;;;;;;;-2.17;100.00;98746.75;4972923;28;20069;-67
2022/01/04 08:05:56;;;;;;;18.00;8.50;;;;;;;-2.17;100.00;98745.91;4987457;28;20095;-76
2022/01/04 08:08:41;;;;;;;18.25;7.97;;;;;;;-2.28;100.00;98753.56;4974743;28;20073;-74
2022/01/04 08:11:28;;;;;;;20.88;8.50;;;;;;;-2.27;100.00;98757.88;4961907;28;20101;-72
2022/01/04 08:14:13;;;;;;;24.35;9.40;;;;;;;-2.46;100.00;98757.63;4954839;28;20060;-68
2022/01/04 08:16:58;;;;;;;20.80;8.93;;;;;;;-2.59;100.00;98756.56;4977756;28;20458;-68
2022/01/04 08:19:42;;;;;;;21.02;8.43;;;;;;;-2.78;100.00;98744.16;4964095;28;20077;-67
2022/01/04 08:22:31;;;;;;;18.48;8.93;;;;;;;-2.68;100.00;98743.44;4958615;28;20046;-67
2022/01/04 08:25:16;;;;;;;19.63;9.13;;;;;;;-2.30;100.00;98747.44;4963727;28;20054;-68
2022/01/04 08:28:01;;;;;;;20.17;8.85;;;;;;;-2.00;100.00;98755.66;4978292;28;20055;-71
2022/01/04 08:30:46;;;;;;;21.13;9.60;;;;;;;-1.71;100.00;98759.47;4962227;28;20237;-70
2022/01/04 08:33:31;;;;;;;23.15;10.23;;;;;;;-2.04;100.00;98751.28;4952300;28;20057;-71
2022/01/04 08:36:15;;;;;;;19.85;8.95;;;;;;;-2.42;100.00;98760.25;4953660;28;20522;-66
2022/01/04 08:39:00;;;;;;;22.60;9.85;;;;;;;-2.61;100.00;98739.22;4962128;28;20065;-70
2022/01/04 08:41:50;;;;;;;19.55;8.45;;;;;;;-2.32;100.00;98758.66;4971647;28;20145;-73
2022/01/04 08:44:39;;;;;;;23.50;9.27;;;;;;;-2.16;100.00;98761.50;4954614;28;20088;-65
2022/01/04 08:47:26;;;;;;;25.02;9.45;;;;;;;-2.04;100.00;98758.19;4968029;28;20056;-69
2022/01/04 08:50:14;;;;;;;18.88;8.32;;;;;;;-1.99;100.00;98770.38;4938851;28;20077;-71
2022/01/04 08:52:59;;;;;;;16.67;8.38;;;;;;;-1.90;100.00;98767.03;4956792;28;20101;-73
2022/01/04 08:55:47;;;;;;;21.85;8.25;;;;;;;-2.01;100.00;98761.69;4966796;28;20184;-67
2022/01/04 08:58:32;;;;;;;20.38;8.68;;;;;;;-1.89;100.00;98758.41;4972745;28;20053;-68
2022/01/04 09:01:17;;;;;;;23.70;9.63;;;;;;;-1.89;100.00;98756.69;4968021;28;20089;-68
2022/01/04 09:04:02;;;;;;;19.77;8.45;;;;;;;-2.20;100.00;98748.47;4944221;28;20475;-66
2022/01/04 09:06:48;;;;;;;18.73;8.35;;;;;;;-2.05;100.00;98751.25;4975314;28;20085;-65
2022/01/04 09:09:33;;;;;;;21.65;9.25;;;;;;;-2.03;100.00;98752.13;4972742;28;20190;-67
2022/01/04 09:12:20;;;;;;;22.85;9.00;;;;;;;-2.42;100.00;98755.06;4978278;28;20049;-67
2022/01/04 09:15:27;;;;;;;19.27;8.70;;;;;;;-2.22;100.00;98760.56;4966952;28;20057;-68
2022/01/04 09:21:23;;;;;;;20.48;8.40;;;;;;;-1.95;100.00;98766.09;4980465;28;20189;-67
2022/01/04 09:24:08;;;;;;;24.98;9.80;;;;;;;-1.93;100.00;98767.00;4969211;28;20436;-68
2022/01/04 09:26:53;;;;;;;19.77;9.02;;;;;;;-1.81;100.00;98765.44;4985582;28;20049;-68
2022/01/04 09:29:38;;;;;;;21.45;9.75;;;;;;;-1.64;100.00;98773.41;4949729;28;20049;-68
2022/01/04 09:32:23;;;;;;;23.60;9.50;;;;;;;-1.44;100.00;98775.41;4961973;28;20065;-66
2022/01/04 09:35:08;;;;;;;27.23;10.45;;;;;;;-1.44;100.00;98772.78;4952899;28;20128;-67
2022/01/04 09:37:53;;;;;;;20.95;9.20;;;;;;;-1.36;100.00;98778.94;4939507;28;20077;-67
2022/01/04 09:40:39;;;;;;;24.83;10.70;;;;;;;-1.27;100.00;98775.59;4970885;28;20615;-68
2022/01/04 09:43:25;;;;;;;25.42;10.80;;;;;;;-1.22;100.00;98786.91;4956021;28;20070;-69
2022/01/04 09:46:09;;;;;;;29.42;11.30;;;;;;;-1.18;100.00;98770.47;4968704;28;20053;-68
2022/01/04 09:48:54;;;;;;;32.03;12.50;;;;;;;-1.11;100.00;98780.09;4967395;28;20530;-67
2022/01/04 09:51:40;;;;;;;34.63;13.30;;;;;;;-0.98;100.00;98790.59;4976178;28;20159;-67
2022/01/04 09:54:26;;;;;;;31.83;13.25;;;;;;;-1.36;100.00;98775.47;4981174;28;20070;-72
2022/01/04 09:57:15;;;;;;;27.13;11.02;;;;;;;-1.37;100.00;98786.72;4974457;28;20529;-72
2022/01/04 10:00:00;;;;;;;30.73;11.07;;;;;;;-1.14;100.00;98782.66;4979269;28;20049;-68
2022/01/04 10:02:49;;;;;;;29.63;11.88;;;;;;;-1.05;100.00;98790.53;4970432;28;20069;-69
2022/01/04 10:05:34;;;;;;;30.13;11.70;;;;;;;-1.06;100.00;98794.00;4955487;28;20054;-70
2022/01/04 10:08:18;;;;;;;31.65;12.50;;;;;;;-1.00;100.00;98786.22;4956909;28;20061;-67
2022/01/04 10:11:10;;;;;;;31.15;12.65;;;;;;;-1.19;100.00;98786.94;4946888;28;20478;-70
2022/01/04 10:13:55;;;;;;;35.30;11.85;;;;;;;-1.19;100.00;98787.78;4963214;28;20140;-67
2022/01/04 10:17:02;;;;;;;33.83;12.40;;;;;;;-1.01;100.00;98781.91;4971487;28;20629;-67
2022/01/04 10:19:53;;;;;;;29.33;11.45;;;;;;;-1.00;100.00;98778.44;4986510;28;20053;-67
2022/01/04 10:22:38;;;;;;;30.98;12.95;;;;;;;-1.14;100.00;98786.09;4984300;28;20056;-67
2022/01/04 10:25:22;;;;;;;33.92;13.52;;;;;;;-1.55;100.00;98782.19;4987759;28;20072;-69
2022/01/04 10:28:08;;;;;;;34.67;14.15;;;;;;;-1.76;100.00;98783.66;4984292;28;20057;-69
2022/01/04 10:30:53;;;;;;;33.83;13.70;;;;;;;-2.00;100.00;98778.16;4972895;28;20529;-67
2022/01/04 10:33:39;;;;;;;42.17;15.02;;;;;;;-1.63;100.00;98782.94;4955489;28;20553;-65
2022/01/04 10:36:25;;;;;;;35.95;13.63;;;;;;;-2.03;100.00;98784.19;4975427;28;20057;-66
2022/01/04 10:39:09;;;;;;;40.05;14.40;;;;;;;-2.35;100.00;98775.06;4981266;28;20112;-64
2022/01/04 10:42:05;;;;;;;46.28;15.02;;;;;;;-3.03;100.00;98782.59;4982056;28;20093;-70
2022/01/04 10:44:52;;;;;;;42.67;14.48;;;;;;;-2.99;100.00;98781.81;4976163;28;20061;-68
2022/01/04 10:47:36;;;;;;;41.05;14.77;;;;;;;-3.20;100.00;98781.44;4973309;28;20061;-67
2022/01/04 10:50:36;;;;;;;33.05;12.70;;;;;;;-3.53;100.00;98773.06;4959000;28;20054;-66
2022/01/04 10:53:31;;;;;;;44.33;14.77;;;;;;;-3.36;100.00;98777.69;4981511;28;20097;-70
2022/01/04 10:56:25;;;;;;;39.20;13.75;;;;;;;-3.35;100.00;98788.94;4953151;28;20129;-72
2022/01/04 10:59:13;;;;;;;44.38;15.35;;;;;;;-3.23;100.00;98784.88;4970266;28;20058;-70
2022/01/04 11:01:59;;;;;;;37.00;14.15;;;;;;;-2.87;100.00;98784.59;4984309;28;20112;-70
2022/01/04 11:04:43;;;;;;;40.70;14.30;;;;;;;-2.34;100.00;98792.38;4984911;28;20749;-69
2022/01/04 11:07:32;;;;;;;40.13;13.45;;;;;;;-2.08;100.00;98788.44;4986666;28;20100;-69
2022/01/04 11:10:17;;;;;;;41.15;14.73;;;;;;;-2.29;100.00;98784.69;4987038;28;20092;-68
2022/01/04 11:13:03;;;;;;;34.30;13.23;;;;;;;-3.23;100.00;98784.88;4956855;28;20109;-71
2022/01/04 11:15:49;;;;;;;34.33;13.07;;;;;;;-3.52;100.00;98786.03;4978935;28;20181;-70
2022/01/04 11:18:37;;;;;;;34.85;13.07;;;;;;;-3.27;100.00;98775.28;4952201;28;20424;-71
2022/01/04 11:21:46;;;;;;;37.40;13.68;;;;;;;-2.71;100.00;98777.13;4972891;28;20588;-69
2022/01/04 11:24:33;;;;;;;37.65;14.63;;;;;;;-2.19;100.00;98784.81;4949019;28;20069;-70
2022/01/04 11:27:19;;;;;;;36.67;14.50;;;;;;;-1.87;100.00;98795.63;4966094;28;20101;-67
2022/01/04 11:30:15;;;;;;;54.35;20.95;;;;;;;-1.58;100.00;98804.69;4967259;28;20068;-68
2022/01/04 11:33:13;;;;;;;47.25;19.15;;;;;;;-1.58;100.00;98794.28;4985270;28;20049;-68
2022/01/04 11:36:00;;;;;;;43.30;18.33;;;;;;;-1.42;100.00;98806.59;4940201;28;20077;-69
2022/01/04 11:38:48;;;;;;;43.03;15.40;;;;;;;-1.32;100.00;98795.44;4956371;28;20070;-70
2022/01/04 11:41:32;;;;;;;40.70;13.50;;;;;;;-1.67;100.00;98805.44;4947934;28;20533;-69
2022/01/04 11:44:20;;;;;;;38.95;14.75;;;;;;;-2.61;100.00;98807.53;4978491;28;20104;-75
2022/01/04 11:47:14;;;;;;;34.33;14.02;;;;;;;-3.08;100.00;98797.22;4985880;28;20087;-73
2022/01/04 11:50:20;;;;;;;38.20;13.63;;;;;;;-2.78;100.00;98796.00;4953582;28;20105;-67
2022/01/04 11:53:09;;;;;;;39.78;14.27;;;;;;;-2.78;100.00;98801.19;4975366;28;20128;-69
2022/01/04 11:55:57;;;;;;;35.90;14.18;;;;;;;-2.59;100.00;98800.66;4968839;28;20138;-71
2022/01/04 11:58:50;;;;;;;36.92;14.60;;;;;;;-2.41;100.00;98808.69;4962088;28;20098;-70
2022/01/04 12:01:35;;;;;;;31.85;13.13;;;;;;;-2.27;100.00;98808.91;4986797;28;20090;-70
2022/01/04 12:04:55;;;;;;;;;;;;;;;-1.98;100.00;98815.41;4967590;28;20105;-69
2022/01/04 12:07:47;;;;;;;28.75;11.75;;;;;;;-2.35;100.00;98802.75;4926654;28;19956;-69
2022/01/04 12:10:34;;;;;;;31.25;12.02;;;;;;;-2.63;100.00;98831.69;4921442;29;20086;-73
2022/01/04 12:13:24;;;;;;;31.40;11.88;;;;;;;-2.79;100.00;98825.41;4931663;28;20143;-70
2022/01/04 12:16:08;;;;;;;28.98;12.50;;;;;;;-2.67;100.00;98817.81;4930113;29;20602;-70
2022/01/04 12:18:56;;;;;;;28.67;12.50;;;;;;;-2.75;100.00;98818.53;4920770;29;21589;-69
2022/01/04 12:21:45;;;;;;;32.13;12.35;;;;;;;-2.87;100.00;98818.31;4930167;29;20420;-67
2022/01/04 12:24:43;;;;;;;31.27;11.88;;;;;;;-2.40;100.00;98813.06;4920365;29;20127;-65
2022/01/04 12:27:28;;;;;;;26.73;11.35;;;;;;;-2.22;100.00;98821.13;4934200;28;20191;-68
2022/01/04 12:30:27;;;;;;;23.88;10.75;;;;;;;-1.81;100.00;98830.38;4933234;29;20209;-67
2022/01/04 12:33:34;;;;;;;34.58;11.07;;;;;;;-1.56;100.00;98829.84;4932959;28;20054;-71
2022/01/04 12:36:41;;;;;;;26.65;11.52;;;;;;;-1.37;100.00;98837.00;4933949;28;20051;-72
2022/01/04 12:39:33;;;;;;;25.38;10.93;;;;;;;-1.43;100.00;98846.41;4931930;29;20092;-69
2022/01/04 12:42:20;;;;;;;24.55;10.65;;;;;;;-1.95;100.00;98847.47;4977116;28;20052;-69
2022/01/04 12:45:06;;;;;;;34.28;12.23;;;;;;;-1.83;100.00;98850.25;4968420;28;20145;-70
2022/01/04 12:47:50;;;;;;;21.98;9.75;;;;;;;-1.96;100.00;98850.06;4982787;28;20126;-68
2022/01/04 12:50:35;;;;;;;25.10;11.00;;;;;;;-1.86;100.00;98854.53;4971229;28;20120;-71
2022/01/04 12:53:36;;;;;;;21.98;10.48;;;;;;;-1.70;100.00;98853.91;4968177;28;20120;-67
2022/01/04 12:56:24;;;;;;;29.08;11.65;;;;;;;-1.75;100.00;98848.63;4986432;28;20053;-71